sensor_id;sensor_type;location;lat;lon;timestamp;P1;durP1;ratioP1;P2;durP2;ratioP2
8568;SDS011;4322;51.104;-4.162;2023-05-07T00:00:36;3.37;;;3.27;;
8568;SDS011;4322;51.104;-4.162;2023-05-07T00:03:04;3.17;;;3.07;;
8568;SDS011;4322;51.104;-4.162;2023-05-07T00:05:32;3.50;;;3.40;;
8568;SDS011;4322;51.104;-4.162;2023-05-07T00:08:01;3.43;;;3.33;;
8568;SDS011;4322;51.104;-4.162;2023-05-07T00:10:29;2.97;;;2.87;;
8568;SDS011;4322;51.104;-4.162;2023-05-07T00:12:56;2.90;;;2.80;;
8568;SDS011;4322;51.104;-4.162;2023-05-07T00:15:24;2.60;;;2.50;;
8568;SDS011;4322;51.104;-4.162;2023-05-07T00:17:52;2.90;;;2.80;;
8568;SDS011;4322;51.104;-4.162;2023-05-07T00:20:20;3.00;;;2.90;;
8568;SDS011;4322;51.104;-4.162;2023-05-07T00:22:47;3.10;;;3.00;;
8568;SDS011;4322;51.104;-4.162;2023-05-07T00:25:17;3.10;;;3.00;;
8568;SDS011;4322;51.104;-4.162;2023-05-07T00:27:45;2.90;;;2.80;;
8568;SDS011;4322;51.104;-4.162;2023-05-07T00:30:13;3.50;;;3.40;;
8568;SDS011;4322;51.104;-4.162;2023-05-07T00:32:41;3.13;;;3.03;;
8568;SDS011;4322;51.104;-4.162;2023-05-07T00:35:11;3.00;;;2.90;;
8568;SDS011;4322;51.104;-4.162;2023-05-07T00:37:39;3.33;;;3.23;;
8568;SDS011;4322;51.104;-4.162;2023-05-07T00:40:07;3.60;;;3.50;;
8568;SDS011;4322;51.104;-4.162;2023-05-07T00:42:37;3.73;;;3.63;;
8568;SDS011;4322;51.104;-4.162;2023-05-07T00:45:05;4.30;;;4.10;;
8568;SDS011;4322;51.104;-4.162;2023-05-07T00:47:34;4.17;;;3.97;;
8568;SDS011;4322;51.104;-4.162;2023-05-07T00:50:02;4.53;;;4.33;;
8568;SDS011;4322;51.104;-4.162;2023-05-07T00:52:30;4.03;;;3.87;;
8568;SDS011;4322;51.104;-4.162;2023-05-07T00:54:57;3.37;;;3.27;;
8568;SDS011;4322;51.104;-4.162;2023-05-07T00:57:26;3.80;;;3.70;;
8568;SDS011;4322;51.104;-4.162;2023-05-07T00:59:56;4.20;;;4.00;;
8568;SDS011;4322;51.104;-4.162;2023-05-07T01:02:23;4.50;;;4.30;;
8568;SDS011;4322;51.104;-4.162;2023-05-07T01:04:51;3.57;;;3.47;;
8568;SDS011;4322;51.104;-4.162;2023-05-07T01:07:20;3.13;;;3.03;;
8568;SDS011;4322;51.104;-4.162;2023-05-07T01:09:47;3.70;;;3.60;;
8568;SDS011;4322;51.104;-4.162;2023-05-07T01:12:15;4.17;;;3.97;;
8568;SDS011;4322;51.104;-4.162;2023-05-07T01:14:43;3.17;;;3.07;;
8568;SDS011;4322;51.104;-4.162;2023-05-07T01:17:12;3.33;;;3.23;;
8568;SDS011;4322;51.104;-4.162;2023-05-07T01:19:40;3.20;;;3.10;;
8568;SDS011;4322;51.104;-4.162;2023-05-07T01:22:09;3.17;;;3.07;;
8568;SDS011;4322;51.104;-4.162;2023-05-07T01:24:38;4.20;;;4.00;;
8568;SDS011;4322;51.104;-4.162;2023-05-07T01:27:06;3.47;;;3.37;;
8568;SDS011;4322;51.104;-4.162;2023-05-07T01:29:34;3.27;;;3.17;;
8568;SDS011;4322;51.104;-4.162;2023-05-07T01:32:02;3.63;;;3.53;;
8568;SDS011;4322;51.104;-4.162;2023-05-07T01:34:31;4.10;;;3.90;;
8568;SDS011;4322;51.104;-4.162;2023-05-07T01:37:00;4.10;;;3.90;;
8568;SDS011;4322;51.104;-4.162;2023-05-07T01:39:28;4.20;;;4.00;;
8568;SDS011;4322;51.104;-4.162;2023-05-07T01:41:57;3.40;;;3.30;;
8568;SDS011;4322;51.104;-4.162;2023-05-07T01:44:26;3.80;;;3.70;;
8568;SDS011;4322;51.104;-4.162;2023-05-07T01:46:54;4.20;;;4.00;;
8568;SDS011;4322;51.104;-4.162;2023-05-07T01:49:22;4.20;;;4.00;;
8568;SDS011;4322;51.104;-4.162;2023-05-07T01:51:50;4.30;;;4.10;;
8568;SDS011;4322;51.104;-4.162;2023-05-07T01:54:18;3.43;;;3.33;;
8568;SDS011;4322;51.104;-4.162;2023-05-07T01:56:46;4.10;;;3.90;;
8568;SDS011;4322;51.104;-4.162;2023-05-07T01:59:16;4.10;;;3.90;;
8568;SDS011;4322;51.104;-4.162;2023-05-07T02:01:44;4.43;;;4.23;;
8568;SDS011;4322;51.104;-4.162;2023-05-07T02:04:12;3.70;;;3.60;;
8568;SDS011;4322;51.104;-4.162;2023-05-07T02:06:40;3.30;;;3.20;;
8568;SDS011;4322;51.104;-4.162;2023-05-07T02:09:07;3.57;;;3.47;;
8568;SDS011;4322;51.104;-4.162;2023-05-07T02:11:36;3.87;;;3.77;;
8568;SDS011;4322;51.104;-4.162;2023-05-07T02:14:04;3.80;;;3.70;;
8568;SDS011;4322;51.104;-4.162;2023-05-07T02:16:33;3.20;;;3.10;;
8568;SDS011;4322;51.104;-4.162;2023-05-07T02:19:01;3.37;;;3.27;;
8568;SDS011;4322;51.104;-4.162;2023-05-07T02:21:28;3.60;;;3.50;;
8568;SDS011;4322;51.104;-4.162;2023-05-07T02:23:56;4.20;;;4.00;;
8568;SDS011;4322;51.104;-4.162;2023-05-07T02:26:24;3.40;;;3.30;;
8568;SDS011;4322;51.104;-4.162;2023-05-07T02:28:52;3.40;;;3.30;;
8568;SDS011;4322;51.104;-4.162;2023-05-07T02:31:20;3.40;;;3.30;;
8568;SDS011;4322;51.104;-4.162;2023-05-07T02:33:49;3.60;;;3.50;;
8568;SDS011;4322;51.104;-4.162;2023-05-07T02:36:17;3.07;;;2.97;;
8568;SDS011;4322;51.104;-4.162;2023-05-07T02:38:44;3.40;;;3.30;;
8568;SDS011;4322;51.104;-4.162;2023-05-07T02:41:12;3.87;;;3.77;;
8568;SDS011;4322;51.104;-4.162;2023-05-07T02:43:40;3.47;;;3.37;;
8568;SDS011;4322;51.104;-4.162;2023-05-07T02:46:08;3.23;;;3.13;;
8568;SDS011;4322;51.104;-4.162;2023-05-07T02:48:36;3.57;;;3.47;;
8568;SDS011;4322;51.104;-4.162;2023-05-07T02:51:05;3.07;;;2.97;;
8568;SDS011;4322;51.104;-4.162;2023-05-07T02:53:33;2.80;;;2.70;;
8568;SDS011;4322;51.104;-4.162;2023-05-07T02:56:01;3.20;;;3.10;;
8568;SDS011;4322;51.104;-4.162;2023-05-07T02:58:28;3.30;;;3.20;;
8568;SDS011;4322;51.104;-4.162;2023-05-07T03:00:56;3.00;;;2.90;;
8568;SDS011;4322;51.104;-4.162;2023-05-07T03:03:25;3.53;;;3.43;;
8568;SDS011;4322;51.104;-4.162;2023-05-07T03:05:53;3.20;;;3.10;;
8568;SDS011;4322;51.104;-4.162;2023-05-07T03:08:22;3.40;;;3.30;;
8568;SDS011;4322;51.104;-4.162;2023-05-07T03:10:50;3.20;;;3.10;;
8568;SDS011;4322;51.104;-4.162;2023-05-07T03:13:18;3.00;;;2.90;;
8568;SDS011;4322;51.104;-4.162;2023-05-07T03:15:47;3.30;;;3.20;;
8568;SDS011;4322;51.104;-4.162;2023-05-07T03:18:14;2.93;;;2.83;;
8568;SDS011;4322;51.104;-4.162;2023-05-07T03:20:42;3.27;;;3.17;;
8568;SDS011;4322;51.104;-4.162;2023-05-07T03:23:10;3.20;;;3.10;;
8568;SDS011;4322;51.104;-4.162;2023-05-07T03:25:39;3.10;;;3.00;;
8568;SDS011;4322;51.104;-4.162;2023-05-07T03:28:07;3.40;;;3.30;;
8568;SDS011;4322;51.104;-4.162;2023-05-07T03:30:35;3.70;;;3.60;;
8568;SDS011;4322;51.104;-4.162;2023-05-07T03:33:02;3.60;;;3.50;;
8568;SDS011;4322;51.104;-4.162;2023-05-07T03:35:31;3.40;;;3.30;;
8568;SDS011;4322;51.104;-4.162;2023-05-07T03:37:58;3.50;;;3.40;;
8568;SDS011;4322;51.104;-4.162;2023-05-07T03:40:26;3.57;;;3.47;;
8568;SDS011;4322;51.104;-4.162;2023-05-07T03:42:57;3.53;;;3.43;;
8568;SDS011;4322;51.104;-4.162;2023-05-07T03:45:25;4.20;;;4.00;;
8568;SDS011;4322;51.104;-4.162;2023-05-07T03:47:53;3.87;;;3.77;;
8568;SDS011;4322;51.104;-4.162;2023-05-07T03:50:21;4.30;;;4.10;;
8568;SDS011;4322;51.104;-4.162;2023-05-07T03:52:48;3.83;;;3.73;;
8568;SDS011;4322;51.104;-4.162;2023-05-07T03:55:16;4.40;;;4.20;;
8568;SDS011;4322;51.104;-4.162;2023-05-07T03:57:44;4.10;;;3.90;;
8568;SDS011;4322;51.104;-4.162;2023-05-07T04:00:14;4.10;;;3.90;;
8568;SDS011;4322;51.104;-4.162;2023-05-07T04:02:41;4.60;;;4.40;;
8568;SDS011;4322;51.104;-4.162;2023-05-07T04:05:09;4.37;;;4.17;;
8568;SDS011;4322;51.104;-4.162;2023-05-07T04:07:37;4.13;;;3.93;;
8568;SDS011;4322;51.104;-4.162;2023-05-07T04:10:05;4.20;;;4.00;;
8568;SDS011;4322;51.104;-4.162;2023-05-07T04:12:33;3.70;;;3.60;;
8568;SDS011;4322;51.104;-4.162;2023-05-07T04:15:01;3.90;;;3.80;;
8568;SDS011;4322;51.104;-4.162;2023-05-07T04:17:30;3.70;;;3.60;;
8568;SDS011;4322;51.104;-4.162;2023-05-07T04:19:58;3.90;;;3.80;;
8568;SDS011;4322;51.104;-4.162;2023-05-07T04:22:26;3.97;;;3.83;;
8568;SDS011;4322;51.104;-4.162;2023-05-07T04:24:54;4.20;;;4.00;;
8568;SDS011;4322;51.104;-4.162;2023-05-07T04:27:22;3.87;;;3.77;;
8568;SDS011;4322;51.104;-4.162;2023-05-07T04:29:50;3.80;;;3.70;;
8568;SDS011;4322;51.104;-4.162;2023-05-07T04:32:22;3.70;;;3.60;;
8568;SDS011;4322;51.104;-4.162;2023-05-07T04:34:52;3.73;;;3.63;;
8568;SDS011;4322;51.104;-4.162;2023-05-07T04:37:20;3.30;;;3.20;;
8568;SDS011;4322;51.104;-4.162;2023-05-07T04:39:48;3.60;;;3.50;;
8568;SDS011;4322;51.104;-4.162;2023-05-07T04:42:16;3.77;;;3.67;;
8568;SDS011;4322;51.104;-4.162;2023-05-07T04:44:44;3.70;;;3.60;;
8568;SDS011;4322;51.104;-4.162;2023-05-07T04:47:12;3.60;;;3.50;;
8568;SDS011;4322;51.104;-4.162;2023-05-07T04:49:40;3.80;;;3.70;;
8568;SDS011;4322;51.104;-4.162;2023-05-07T04:52:09;3.70;;;3.60;;
8568;SDS011;4322;51.104;-4.162;2023-05-07T04:54:42;3.87;;;3.77;;
8568;SDS011;4322;51.104;-4.162;2023-05-07T04:57:10;3.70;;;3.60;;
8568;SDS011;4322;51.104;-4.162;2023-05-07T04:59:38;3.90;;;3.80;;
8568;SDS011;4322;51.104;-4.162;2023-05-07T05:02:06;3.50;;;3.40;;
8568;SDS011;4322;51.104;-4.162;2023-05-07T05:04:33;3.27;;;3.17;;
8568;SDS011;4322;51.104;-4.162;2023-05-07T05:07:01;3.60;;;3.50;;
8568;SDS011;4322;51.104;-4.162;2023-05-07T05:09:32;3.40;;;3.30;;
8568;SDS011;4322;51.104;-4.162;2023-05-07T05:12:00;3.57;;;3.47;;
8568;SDS011;4322;51.104;-4.162;2023-05-07T05:14:27;3.60;;;3.50;;
8568;SDS011;4322;51.104;-4.162;2023-05-07T05:16:55;3.27;;;3.17;;
8568;SDS011;4322;51.104;-4.162;2023-05-07T05:19:23;3.50;;;3.40;;
8568;SDS011;4322;51.104;-4.162;2023-05-07T05:21:51;3.40;;;3.30;;
8568;SDS011;4322;51.104;-4.162;2023-05-07T05:24:19;3.60;;;3.50;;
8568;SDS011;4322;51.104;-4.162;2023-05-07T05:26:48;3.40;;;3.30;;
8568;SDS011;4322;51.104;-4.162;2023-05-07T05:29:15;3.23;;;3.13;;
8568;SDS011;4322;51.104;-4.162;2023-05-07T05:31:43;3.50;;;3.40;;
8568;SDS011;4322;51.104;-4.162;2023-05-07T05:34:11;3.30;;;3.20;;
8568;SDS011;4322;51.104;-4.162;2023-05-07T05:36:39;3.60;;;3.50;;
8568;SDS011;4322;51.104;-4.162;2023-05-07T05:39:06;3.60;;;3.50;;
8568;SDS011;4322;51.104;-4.162;2023-05-07T05:41:34;3.40;;;3.30;;
8568;SDS011;4322;51.104;-4.162;2023-05-07T05:44:04;3.80;;;3.70;;
8568;SDS011;4322;51.104;-4.162;2023-05-07T05:46:31;3.50;;;3.40;;
8568;SDS011;4322;51.104;-4.162;2023-05-07T05:49:02;3.37;;;3.27;;
8568;SDS011;4322;51.104;-4.162;2023-05-07T05:51:30;3.33;;;3.23;;
8568;SDS011;4322;51.104;-4.162;2023-05-07T05:53:58;3.60;;;3.50;;
8568;SDS011;4322;51.104;-4.162;2023-05-07T05:56:25;3.60;;;3.50;;
8568;SDS011;4322;51.104;-4.162;2023-05-07T05:58:53;2.97;;;2.87;;
8568;SDS011;4322;51.104;-4.162;2023-05-07T06:01:22;3.00;;;2.90;;
8568;SDS011;4322;51.104;-4.162;2023-05-07T06:03:50;2.97;;;2.87;;
8568;SDS011;4322;51.104;-4.162;2023-05-07T06:06:19;2.90;;;2.80;;
8568;SDS011;4322;51.104;-4.162;2023-05-07T06:08:47;2.90;;;2.80;;
8568;SDS011;4322;51.104;-4.162;2023-05-07T06:11:14;2.50;;;2.40;;
8568;SDS011;4322;51.104;-4.162;2023-05-07T06:13:42;2.60;;;2.50;;
8568;SDS011;4322;51.104;-4.162;2023-05-07T06:16:10;2.70;;;2.60;;
8568;SDS011;4322;51.104;-4.162;2023-05-07T06:18:39;2.60;;;2.50;;
8568;SDS011;4322;51.104;-4.162;2023-05-07T06:21:07;2.63;;;2.53;;
8568;SDS011;4322;51.104;-4.162;2023-05-07T06:23:35;3.10;;;3.00;;
8568;SDS011;4322;51.104;-4.162;2023-05-07T06:26:03;3.40;;;3.30;;
8568;SDS011;4322;51.104;-4.162;2023-05-07T06:28:30;3.63;;;3.53;;
8568;SDS011;4322;51.104;-4.162;2023-05-07T06:31:11;4.20;;;4.00;;
8568;SDS011;4322;51.104;-4.162;2023-05-07T06:33:41;4.37;;;4.17;;
8568;SDS011;4322;51.104;-4.162;2023-05-07T06:36:14;4.73;;;4.53;;
8568;SDS011;4322;51.104;-4.162;2023-05-07T06:38:42;5.53;;;5.33;;
8568;SDS011;4322;51.104;-4.162;2023-05-07T06:41:10;5.60;;;5.40;;
8568;SDS011;4322;51.104;-4.162;2023-05-07T06:43:38;5.93;;;5.63;;
8568;SDS011;4322;51.104;-4.162;2023-05-07T06:46:06;6.97;;;6.67;;
8568;SDS011;4322;51.104;-4.162;2023-05-07T06:48:33;6.60;;;6.30;;
8568;SDS011;4322;51.104;-4.162;2023-05-07T06:51:04;6.83;;;6.53;;
8568;SDS011;4322;51.104;-4.162;2023-05-07T06:53:31;6.63;;;6.33;;
8568;SDS011;4322;51.104;-4.162;2023-05-07T06:56:00;6.40;;;6.10;;
8568;SDS011;4322;51.104;-4.162;2023-05-07T06:58:29;6.10;;;5.80;;
8568;SDS011;4322;51.104;-4.162;2023-05-07T07:00:57;6.07;;;5.77;;
8568;SDS011;4322;51.104;-4.162;2023-05-07T07:03:25;4.80;;;4.60;;
8568;SDS011;4322;51.104;-4.162;2023-05-07T07:05:53;5.00;;;4.80;;
8568;SDS011;4322;51.104;-4.162;2023-05-07T07:08:22;5.20;;;5.00;;
8568;SDS011;4322;51.104;-4.162;2023-05-07T07:10:50;4.80;;;4.60;;
8568;SDS011;4322;51.104;-4.162;2023-05-07T07:13:18;4.77;;;4.57;;
8568;SDS011;4322;51.104;-4.162;2023-05-07T07:15:46;4.80;;;4.60;;
8568;SDS011;4322;51.104;-4.162;2023-05-07T07:18:13;4.63;;;4.43;;
8568;SDS011;4322;51.104;-4.162;2023-05-07T07:20:41;4.90;;;4.70;;
8568;SDS011;4322;51.104;-4.162;2023-05-07T07:23:12;4.60;;;4.40;;
8568;SDS011;4322;51.104;-4.162;2023-05-07T07:25:41;4.47;;;4.27;;
8568;SDS011;4322;51.104;-4.162;2023-05-07T07:28:09;4.23;;;4.03;;
8568;SDS011;4322;51.104;-4.162;2023-05-07T07:30:37;4.40;;;4.20;;
8568;SDS011;4322;51.104;-4.162;2023-05-07T07:33:04;3.97;;;3.80;;
8568;SDS011;4322;51.104;-4.162;2023-05-07T07:35:32;3.70;;;3.60;;
8568;SDS011;4322;51.104;-4.162;2023-05-07T07:38:00;3.27;;;3.17;;
8568;SDS011;4322;51.104;-4.162;2023-05-07T07:40:29;2.90;;;2.80;;
8568;SDS011;4322;51.104;-4.162;2023-05-07T07:42:58;2.90;;;2.80;;
8568;SDS011;4322;51.104;-4.162;2023-05-07T07:45:27;3.10;;;3.00;;
8568;SDS011;4322;51.104;-4.162;2023-05-07T07:47:55;2.90;;;2.80;;
8568;SDS011;4322;51.104;-4.162;2023-05-07T07:50:23;2.97;;;2.87;;
8568;SDS011;4322;51.104;-4.162;2023-05-07T07:52:57;3.10;;;3.00;;
8568;SDS011;4322;51.104;-4.162;2023-05-07T07:55:25;3.13;;;3.03;;
8568;SDS011;4322;51.104;-4.162;2023-05-07T07:57:53;3.10;;;3.00;;
8568;SDS011;4322;51.104;-4.162;2023-05-07T08:00:22;3.07;;;2.97;;
8568;SDS011;4322;51.104;-4.162;2023-05-07T08:02:50;3.10;;;3.00;;
8568;SDS011;4322;51.104;-4.162;2023-05-07T08:05:18;3.20;;;3.10;;
8568;SDS011;4322;51.104;-4.162;2023-05-07T08:07:46;3.10;;;3.00;;
8568;SDS011;4322;51.104;-4.162;2023-05-07T08:10:18;3.10;;;3.00;;
8568;SDS011;4322;51.104;-4.162;2023-05-07T08:12:47;2.80;;;2.70;;
8568;SDS011;4322;51.104;-4.162;2023-05-07T08:15:15;2.93;;;2.83;;
8568;SDS011;4322;51.104;-4.162;2023-05-07T08:17:44;2.90;;;2.80;;
8568;SDS011;4322;51.104;-4.162;2023-05-07T08:20:13;2.70;;;2.60;;
8568;SDS011;4322;51.104;-4.162;2023-05-07T08:22:41;2.90;;;2.80;;
8568;SDS011;4322;51.104;-4.162;2023-05-07T08:25:09;2.80;;;2.70;;
8568;SDS011;4322;51.104;-4.162;2023-05-07T08:27:36;2.90;;;2.80;;
8568;SDS011;4322;51.104;-4.162;2023-05-07T08:30:05;3.10;;;3.00;;
8568;SDS011;4322;51.104;-4.162;2023-05-07T08:32:33;3.20;;;3.10;;
8568;SDS011;4322;51.104;-4.162;2023-05-07T08:35:02;3.20;;;3.10;;
8568;SDS011;4322;51.104;-4.162;2023-05-07T08:37:30;3.40;;;3.30;;
8568;SDS011;4322;51.104;-4.162;2023-05-07T08:39:57;3.20;;;3.10;;
8568;SDS011;4322;51.104;-4.162;2023-05-07T08:42:25;3.40;;;3.30;;
8568;SDS011;4322;51.104;-4.162;2023-05-07T08:44:54;3.20;;;3.10;;
8568;SDS011;4322;51.104;-4.162;2023-05-07T08:47:27;3.00;;;2.90;;
8568;SDS011;4322;51.104;-4.162;2023-05-07T08:49:56;3.30;;;3.20;;
8568;SDS011;4322;51.104;-4.162;2023-05-07T08:52:26;3.27;;;3.17;;
8568;SDS011;4322;51.104;-4.162;2023-05-07T08:54:54;3.00;;;2.90;;
8568;SDS011;4322;51.104;-4.162;2023-05-07T08:57:22;2.97;;;2.87;;
8568;SDS011;4322;51.104;-4.162;2023-05-07T08:59:50;3.50;;;3.40;;
8568;SDS011;4322;51.104;-4.162;2023-05-07T09:02:18;3.10;;;3.00;;
8568;SDS011;4322;51.104;-4.162;2023-05-07T09:04:46;3.47;;;3.37;;
8568;SDS011;4322;51.104;-4.162;2023-05-07T09:07:15;3.63;;;3.53;;
8568;SDS011;4322;51.104;-4.162;2023-05-07T09:09:45;3.20;;;3.10;;
8568;SDS011;4322;51.104;-4.162;2023-05-07T09:12:13;3.80;;;3.70;;
8568;SDS011;4322;51.104;-4.162;2023-05-07T09:14:41;3.33;;;3.23;;
8568;SDS011;4322;51.104;-4.162;2023-05-07T09:17:09;4.10;;;3.90;;
8568;SDS011;4322;51.104;-4.162;2023-05-07T09:19:36;3.90;;;3.80;;
8568;SDS011;4322;51.104;-4.162;2023-05-07T09:22:05;3.73;;;3.63;;
8568;SDS011;4322;51.104;-4.162;2023-05-07T09:24:33;4.13;;;3.93;;
8568;SDS011;4322;51.104;-4.162;2023-05-07T09:27:05;3.73;;;3.63;;
8568;SDS011;4322;51.104;-4.162;2023-05-07T09:29:34;4.30;;;4.10;;
8568;SDS011;4322;51.104;-4.162;2023-05-07T09:32:03;3.50;;;3.40;;
8568;SDS011;4322;51.104;-4.162;2023-05-07T09:34:31;3.77;;;3.67;;
8568;SDS011;4322;51.104;-4.162;2023-05-07T09:36:58;3.90;;;3.80;;
8568;SDS011;4322;51.104;-4.162;2023-05-07T09:39:26;3.50;;;3.40;;
8568;SDS011;4322;51.104;-4.162;2023-05-07T09:42:07;3.60;;;3.50;;
8568;SDS011;4322;51.104;-4.162;2023-05-07T09:44:34;3.63;;;3.53;;
8568;SDS011;4322;51.104;-4.162;2023-05-07T09:47:04;3.80;;;3.70;;
8568;SDS011;4322;51.104;-4.162;2023-05-07T09:49:33;3.80;;;3.70;;
8568;SDS011;4322;51.104;-4.162;2023-05-07T09:52:01;4.13;;;3.93;;
8568;SDS011;4322;51.104;-4.162;2023-05-07T09:54:30;4.60;;;4.40;;
8568;SDS011;4322;51.104;-4.162;2023-05-07T09:56:59;4.53;;;4.33;;
8568;SDS011;4322;51.104;-4.162;2023-05-07T09:59:31;4.30;;;4.10;;
8568;SDS011;4322;51.104;-4.162;2023-05-07T10:01:59;4.30;;;4.10;;
8568;SDS011;4322;51.104;-4.162;2023-05-07T10:04:30;4.30;;;4.10;;
8568;SDS011;4322;51.104;-4.162;2023-05-07T10:06:58;4.40;;;4.20;;
8568;SDS011;4322;51.104;-4.162;2023-05-07T10:09:26;3.87;;;3.77;;
8568;SDS011;4322;51.104;-4.162;2023-05-07T10:11:54;4.57;;;4.37;;
8568;SDS011;4322;51.104;-4.162;2023-05-07T10:14:22;4.30;;;4.10;;
8568;SDS011;4322;51.104;-4.162;2023-05-07T10:16:52;4.70;;;4.50;;
8568;SDS011;4322;51.104;-4.162;2023-05-07T10:19:21;4.83;;;4.63;;
8568;SDS011;4322;51.104;-4.162;2023-05-07T10:21:51;5.03;;;4.83;;
8568;SDS011;4322;51.104;-4.162;2023-05-07T10:24:22;4.77;;;4.57;;
8568;SDS011;4322;51.104;-4.162;2023-05-07T10:26:53;4.67;;;4.47;;
8568;SDS011;4322;51.104;-4.162;2023-05-07T10:29:25;4.97;;;4.77;;
8568;SDS011;4322;51.104;-4.162;2023-05-07T10:32:00;5.20;;;5.00;;
8568;SDS011;4322;51.104;-4.162;2023-05-07T10:34:33;4.80;;;4.60;;
8568;SDS011;4322;51.104;-4.162;2023-05-07T10:37:03;4.97;;;4.77;;
8568;SDS011;4322;51.104;-4.162;2023-05-07T10:39:31;5.47;;;5.27;;
8568;SDS011;4322;51.104;-4.162;2023-05-07T10:42:07;5.67;;;5.47;;
8568;SDS011;4322;51.104;-4.162;2023-05-07T10:44:34;5.40;;;5.20;;
8568;SDS011;4322;51.104;-4.162;2023-05-07T10:47:05;5.83;;;5.53;;
8568;SDS011;4322;51.104;-4.162;2023-05-07T10:49:36;5.70;;;5.50;;
8568;SDS011;4322;51.104;-4.162;2023-05-07T10:52:13;5.50;;;5.30;;
8568;SDS011;4322;51.104;-4.162;2023-05-07T10:54:42;4.90;;;4.70;;
8568;SDS011;4322;51.104;-4.162;2023-05-07T10:59:56;4.37;;;4.17;;
8568;SDS011;4322;51.104;-4.162;2023-05-07T11:02:29;4.40;;;4.20;;
8568;SDS011;4322;51.104;-4.162;2023-05-07T11:05:21;4.77;;;4.57;;
8568;SDS011;4322;51.104;-4.162;2023-05-07T11:07:53;4.40;;;4.20;;
8568;SDS011;4322;51.104;-4.162;2023-05-07T11:10:21;4.40;;;4.20;;
8568;SDS011;4322;51.104;-4.162;2023-05-07T11:12:50;3.77;;;3.67;;
8568;SDS011;4322;51.104;-4.162;2023-05-07T11:15:37;3.90;;;3.80;;
8568;SDS011;4322;51.104;-4.162;2023-05-07T11:18:05;3.70;;;3.60;;
8568;SDS011;4322;51.104;-4.162;2023-05-07T11:20:53;3.20;;;3.10;;
8568;SDS011;4322;51.104;-4.162;2023-05-07T11:26:09;1.80;;;1.80;;
8568;SDS011;4322;51.104;-4.162;2023-05-07T11:28:37;1.60;;;1.60;;
8568;SDS011;4322;51.104;-4.162;2023-05-07T11:31:05;1.50;;;1.50;;
8568;SDS011;4322;51.104;-4.162;2023-05-07T11:33:34;1.80;;;1.80;;
8568;SDS011;4322;51.104;-4.162;2023-05-07T11:36:12;1.63;;;1.63;;
8568;SDS011;4322;51.104;-4.162;2023-05-07T11:38:40;2.00;;;2.00;;
8568;SDS011;4322;51.104;-4.162;2023-05-07T11:41:08;1.77;;;1.77;;
8568;SDS011;4322;51.104;-4.162;2023-05-07T11:43:36;1.70;;;1.70;;
8568;SDS011;4322;51.104;-4.162;2023-05-07T11:46:06;1.67;;;1.67;;
8568;SDS011;4322;51.104;-4.162;2023-05-07T11:48:35;1.60;;;1.60;;
8568;SDS011;4322;51.104;-4.162;2023-05-07T11:51:03;1.67;;;1.67;;
8568;SDS011;4322;51.104;-4.162;2023-05-07T11:53:36;1.50;;;1.50;;
8568;SDS011;4322;51.104;-4.162;2023-05-07T11:56:05;1.40;;;1.40;;
8568;SDS011;4322;51.104;-4.162;2023-05-07T11:58:33;1.50;;;1.50;;
8568;SDS011;4322;51.104;-4.162;2023-05-07T12:01:01;1.40;;;1.40;;
8568;SDS011;4322;51.104;-4.162;2023-05-07T12:03:29;1.57;;;1.57;;
8568;SDS011;4322;51.104;-4.162;2023-05-07T12:06:10;1.40;;;1.40;;
8568;SDS011;4322;51.104;-4.162;2023-05-07T12:08:40;1.50;;;1.50;;
8568;SDS011;4322;51.104;-4.162;2023-05-07T12:11:15;1.37;;;1.37;;
8568;SDS011;4322;51.104;-4.162;2023-05-07T12:13:44;1.20;;;1.20;;
8568;SDS011;4322;51.104;-4.162;2023-05-07T12:16:12;1.27;;;1.27;;
8568;SDS011;4322;51.104;-4.162;2023-05-07T12:18:40;1.10;;;1.10;;
8568;SDS011;4322;51.104;-4.162;2023-05-07T12:21:08;1.20;;;1.20;;
8568;SDS011;4322;51.104;-4.162;2023-05-07T12:23:37;1.33;;;1.33;;
8568;SDS011;4322;51.104;-4.162;2023-05-07T12:26:07;1.10;;;1.10;;
8568;SDS011;4322;51.104;-4.162;2023-05-07T12:28:36;1.20;;;1.20;;
8568;SDS011;4322;51.104;-4.162;2023-05-07T12:31:05;1.10;;;1.10;;
8568;SDS011;4322;51.104;-4.162;2023-05-07T12:33:33;1.10;;;1.10;;
8568;SDS011;4322;51.104;-4.162;2023-05-07T12:36:05;1.00;;;1.00;;
8568;SDS011;4322;51.104;-4.162;2023-05-07T12:38:34;0.90;;;0.90;;
8568;SDS011;4322;51.104;-4.162;2023-05-07T12:41:02;1.00;;;1.00;;
8568;SDS011;4322;51.104;-4.162;2023-05-07T12:43:31;0.77;;;0.77;;
8568;SDS011;4322;51.104;-4.162;2023-05-07T12:46:00;0.87;;;0.87;;
8568;SDS011;4322;51.104;-4.162;2023-05-07T12:48:28;0.80;;;0.80;;
8568;SDS011;4322;51.104;-4.162;2023-05-07T12:50:57;0.80;;;0.80;;
8568;SDS011;4322;51.104;-4.162;2023-05-07T12:53:25;0.90;;;0.90;;
8568;SDS011;4322;51.104;-4.162;2023-05-07T12:55:54;0.80;;;0.80;;
8568;SDS011;4322;51.104;-4.162;2023-05-07T12:58:24;0.90;;;0.90;;
8568;SDS011;4322;51.104;-4.162;2023-05-07T13:00:53;0.90;;;0.90;;
8568;SDS011;4322;51.104;-4.162;2023-05-07T13:03:26;0.97;;;0.97;;
8568;SDS011;4322;51.104;-4.162;2023-05-07T13:05:54;0.90;;;0.90;;
8568;SDS011;4322;51.104;-4.162;2023-05-07T13:08:25;0.90;;;0.90;;
8568;SDS011;4322;51.104;-4.162;2023-05-07T13:10:53;0.80;;;0.80;;
8568;SDS011;4322;51.104;-4.162;2023-05-07T13:13:20;0.90;;;0.90;;
8568;SDS011;4322;51.104;-4.162;2023-05-07T13:15:48;0.87;;;0.87;;
8568;SDS011;4322;51.104;-4.162;2023-05-07T13:18:18;1.10;;;1.10;;
8568;SDS011;4322;51.104;-4.162;2023-05-07T13:20:45;1.00;;;1.00;;
8568;SDS011;4322;51.104;-4.162;2023-05-07T13:23:13;0.90;;;0.90;;
8568;SDS011;4322;51.104;-4.162;2023-05-07T13:25:41;1.10;;;1.10;;
8568;SDS011;4322;51.104;-4.162;2023-05-07T13:28:09;0.90;;;0.90;;
8568;SDS011;4322;51.104;-4.162;2023-05-07T13:30:37;0.90;;;0.90;;
8568;SDS011;4322;51.104;-4.162;2023-05-07T13:33:04;1.10;;;1.10;;
8568;SDS011;4322;51.104;-4.162;2023-05-07T13:35:34;0.90;;;0.90;;
8568;SDS011;4322;51.104;-4.162;2023-05-07T13:38:01;0.90;;;0.90;;
8568;SDS011;4322;51.104;-4.162;2023-05-07T13:40:29;1.00;;;1.00;;
8568;SDS011;4322;51.104;-4.162;2023-05-07T13:42:57;0.90;;;0.90;;
8568;SDS011;4322;51.104;-4.162;2023-05-07T13:45:27;0.97;;;0.97;;
8568;SDS011;4322;51.104;-4.162;2023-05-07T13:47:55;0.93;;;0.93;;
8568;SDS011;4322;51.104;-4.162;2023-05-07T13:50:23;0.90;;;0.90;;
8568;SDS011;4322;51.104;-4.162;2023-05-07T13:52:54;1.03;;;1.03;;
8568;SDS011;4322;51.104;-4.162;2023-05-07T13:55:23;0.90;;;0.90;;
8568;SDS011;4322;51.104;-4.162;2023-05-07T13:57:54;1.00;;;1.00;;
8568;SDS011;4322;51.104;-4.162;2023-05-07T14:00:23;0.90;;;0.90;;
8568;SDS011;4322;51.104;-4.162;2023-05-07T14:02:50;1.00;;;1.00;;
8568;SDS011;4322;51.104;-4.162;2023-05-07T14:05:18;1.00;;;1.00;;
8568;SDS011;4322;51.104;-4.162;2023-05-07T14:07:46;1.00;;;1.00;;
8568;SDS011;4322;51.104;-4.162;2023-05-07T14:10:16;0.93;;;0.93;;
8568;SDS011;4322;51.104;-4.162;2023-05-07T14:12:44;1.00;;;1.00;;
8568;SDS011;4322;51.104;-4.162;2023-05-07T14:15:13;0.97;;;0.97;;
8568;SDS011;4322;51.104;-4.162;2023-05-07T14:17:41;1.07;;;1.07;;
8568;SDS011;4322;51.104;-4.162;2023-05-07T14:20:09;1.03;;;1.03;;
8568;SDS011;4322;51.104;-4.162;2023-05-07T14:22:37;1.00;;;1.00;;
8568;SDS011;4322;51.104;-4.162;2023-05-07T14:25:06;1.00;;;1.00;;
8568;SDS011;4322;51.104;-4.162;2023-05-07T14:27:35;1.10;;;1.10;;
8568;SDS011;4322;51.104;-4.162;2023-05-07T14:30:03;1.00;;;1.00;;
8568;SDS011;4322;51.104;-4.162;2023-05-07T14:32:31;1.00;;;1.00;;
8568;SDS011;4322;51.104;-4.162;2023-05-07T14:34:59;1.10;;;1.10;;
8568;SDS011;4322;51.104;-4.162;2023-05-07T14:37:27;1.00;;;1.00;;
8568;SDS011;4322;51.104;-4.162;2023-05-07T14:39:55;1.10;;;1.10;;
8568;SDS011;4322;51.104;-4.162;2023-05-07T14:42:22;1.00;;;1.00;;
8568;SDS011;4322;51.104;-4.162;2023-05-07T14:44:52;1.00;;;1.00;;
8568;SDS011;4322;51.104;-4.162;2023-05-07T14:47:20;1.03;;;1.03;;
8568;SDS011;4322;51.104;-4.162;2023-05-07T14:49:47;1.00;;;1.00;;
8568;SDS011;4322;51.104;-4.162;2023-05-07T14:52:15;0.93;;;0.93;;
8568;SDS011;4322;51.104;-4.162;2023-05-07T14:54:43;0.90;;;0.90;;
8568;SDS011;4322;51.104;-4.162;2023-05-07T14:57:11;1.00;;;1.00;;
8568;SDS011;4322;51.104;-4.162;2023-05-07T14:59:41;1.00;;;1.00;;
8568;SDS011;4322;51.104;-4.162;2023-05-07T15:02:11;0.90;;;0.90;;
8568;SDS011;4322;51.104;-4.162;2023-05-07T15:04:39;1.00;;;1.00;;
8568;SDS011;4322;51.104;-4.162;2023-05-07T15:07:12;0.97;;;0.97;;
8568;SDS011;4322;51.104;-4.162;2023-05-07T15:09:41;0.93;;;0.93;;
8568;SDS011;4322;51.104;-4.162;2023-05-07T15:12:09;1.03;;;1.03;;
8568;SDS011;4322;51.104;-4.162;2023-05-07T15:14:37;0.90;;;0.90;;